createdAt,value
2023-05-10T00:02:36.188Z,100726.35
2023-05-10T00:05:32.462Z,100729.52
2023-05-10T00:08:43.299Z,100734.52
2023-05-10T00:11:39.377Z,100729.55
2023-05-10T00:14:42.233Z,100730.53
2023-05-10T00:17:35.173Z,100731.81
2023-05-10T00:20:30.890Z,100729.36
2023-05-10T00:23:35.363Z,100728.02
2023-05-10T00:26:29.126Z,100733.34
2023-05-10T00:29:25.252Z,100731.29
2023-05-10T00:32:19.113Z,100734.60
2023-05-10T00:35:10.776Z,100734.65
2023-05-10T00:38:06.773Z,100737.42
2023-05-10T00:40:57.624Z,100737.61
2023-05-10T00:43:52.056Z,100736.35
2023-05-10T00:46:52.001Z,100738.64
2023-05-10T00:49:59.808Z,100737.47
2023-05-10T00:53:03.607Z,100738.48
2023-05-10T00:55:56.704Z,100737.10
2023-05-10T00:59:05.919Z,100738.02
2023-05-10T01:01:56.776Z,100734.64
2023-05-10T01:04:49.954Z,100734.83
2023-05-10T01:07:40.945Z,100737.29
2023-05-10T01:10:32.273Z,100735.52
2023-05-10T01:13:33.013Z,100731.13
2023-05-10T01:16:23.906Z,100729.84
2023-05-10T01:19:19.925Z,100730.14
2023-05-10T01:22:16.237Z,100734.96
2023-05-10T01:25:18.050Z,100734.05
2023-05-10T01:28:34.403Z,100730.07
2023-05-10T01:31:40.114Z,100732.71
2023-05-10T01:34:36.600Z,100731.46
2023-05-10T01:37:31.623Z,100730.72
2023-05-10T01:40:25.859Z,100733.88
2023-05-10T01:43:21.873Z,100733.45
2023-05-10T01:46:17.132Z,100732.98
2023-05-10T01:49:16.337Z,100731.67
2023-05-10T01:52:29.352Z,100729.73
2023-05-10T01:55:22.830Z,100730.34
2023-05-10T01:58:18.318Z,100731.22
2023-05-10T02:01:09.459Z,100727.40
2023-05-10T02:04:10.172Z,100726.88
2023-05-10T02:07:21.816Z,100727.91
2023-05-10T02:10:18.467Z,100727.90
2023-05-10T02:13:20.642Z,100727.36
2023-05-10T02:16:27.610Z,100722.83
2023-05-10T02:19:24.610Z,100723.17
2023-05-10T02:22:21.614Z,100723.73
2023-05-10T02:25:17.998Z,100724.90
2023-05-10T02:28:09.715Z,100726.89
2023-05-10T02:31:00.910Z,100728.02
2023-05-10T02:34:04.016Z,100728.90
2023-05-10T02:37:01.564Z,100726.38
2023-05-10T02:40:13.506Z,100725.83
2023-05-10T02:43:07.674Z,100726.41
2023-05-10T02:46:01.950Z,100730.39
2023-05-10T02:48:52.750Z,100738.23
2023-05-10T02:51:49.039Z,100737.48
2023-05-10T02:54:46.110Z,100735.72
2023-05-10T02:57:44.304Z,100731.14
2023-05-10T03:00:35.375Z,100729.36
2023-05-10T03:03:26.014Z,100728.86
2023-05-10T03:06:20.096Z,100736.48
2023-05-10T03:09:17.157Z,100737.73
2023-05-10T03:12:10.521Z,100736.64
2023-05-10T03:15:11.196Z,100736.06
2023-05-10T03:18:09.174Z,100738.97
2023-05-10T03:21:01.951Z,100739.51
2023-05-10T03:24:00.403Z,100738.03
2023-05-10T03:26:56.060Z,100736.44
2023-05-10T03:29:49.543Z,100734.63
2023-05-10T03:32:49.235Z,100738.95
2023-05-10T03:35:42.975Z,100737.40
2023-05-10T03:38:42.653Z,100733.49
2023-05-10T03:41:38.951Z,100732.42
2023-05-10T03:44:34.368Z,100727.41
2023-05-10T03:47:35.419Z,100732.55
2023-05-10T03:50:31.508Z,100732.39
2023-05-10T03:53:28.048Z,100729.96
2023-05-10T03:56:29.588Z,100730.73
2023-05-10T03:59:22.874Z,100728.84
2023-05-10T04:02:16.887Z,100734.11
2023-05-10T04:05:13.882Z,100731.40
2023-05-10T04:08:05.611Z,100734.97
2023-05-10T04:11:08.907Z,100732.45
2023-05-10T04:14:04.987Z,100732.26
2023-05-10T04:17:10.750Z,100730.18
2023-05-10T04:20:21.599Z,100729.73
2023-05-10T04:23:15.333Z,100730.75
2023-05-10T04:26:17.773Z,100727.11
2023-05-10T04:29:28.980Z,100725.23
2023-05-10T04:32:25.304Z,100722.82
2023-05-10T04:35:20.839Z,100726.02
2023-05-10T04:38:11.460Z,100726.44
2023-05-10T04:41:19.027Z,100729.14
2023-05-10T04:44:21.709Z,100724.95
2023-05-10T04:47:18.031Z,100721.02
2023-05-10T04:50:20.198Z,100722.95
2023-05-10T04:53:23.814Z,100724.95
2023-05-10T04:56:27.492Z,100726.19
2023-05-10T04:59:23.673Z,100721.43
2023-05-10T05:02:30.963Z,100721.73
2023-05-10T05:05:31.784Z,100719.10
2023-05-10T05:08:42.631Z,100716.00
2023-05-10T05:11:42.133Z,100717.35
2023-05-10T05:14:32.875Z,100720.11
2023-05-10T05:17:23.545Z,100718.58
2023-05-10T05:20:14.893Z,100720.44
2023-05-10T05:23:05.582Z,100722.59
2023-05-10T05:25:56.784Z,100723.59
2023-05-10T05:28:47.419Z,100723.17
2023-05-10T05:31:38.079Z,100725.58
2023-05-10T05:34:36.173Z,100729.00
2023-05-10T05:37:32.022Z,100730.45
2023-05-10T05:40:25.970Z,100733.95
2023-05-10T05:43:27.656Z,100734.55
2023-05-10T05:46:23.158Z,100734.87
2023-05-10T05:49:19.306Z,100737.27
2023-05-10T05:52:12.843Z,100742.06
2023-05-10T05:55:12.995Z,100741.88
2023-05-10T05:58:06.111Z,100746.87
2023-05-10T06:00:57.024Z,100743.06
2023-05-10T06:03:48.683Z,100744.70
2023-05-10T06:06:39.793Z,100743.30
2023-05-10T06:09:30.366Z,100735.63
2023-05-10T06:12:25.895Z,100731.73
2023-05-10T06:15:25.831Z,100734.19
2023-05-10T06:18:16.629Z,100735.23
2023-05-10T06:21:10.487Z,100734.48
2023-05-10T06:24:09.263Z,100738.96
2023-05-10T06:27:05.543Z,100743.67
2023-05-10T06:30:12.449Z,100749.77
2023-05-10T06:33:04.824Z,100754.80
2023-05-10T06:35:55.389Z,100759.88
2023-05-10T06:38:47.608Z,100761.06
2023-05-10T06:41:38.305Z,100765.01
2023-05-10T06:44:29.247Z,100760.73
2023-05-10T06:47:19.958Z,100763.61
2023-05-10T06:50:13.658Z,100763.84
2023-05-10T06:53:06.856Z,100766.77
2023-05-10T06:55:57.491Z,100769.00
2023-05-10T06:58:48.124Z,100767.17
2023-05-10T07:01:39.071Z,100769.98
2023-05-10T07:04:30.228Z,100772.34
2023-05-10T07:07:21.120Z,100773.46
2023-05-10T07:10:32.252Z,100775.27
2023-05-10T07:13:27.525Z,100776.58
2023-05-10T07:16:22.738Z,100776.60
2023-05-10T07:19:16.463Z,100775.05
2023-05-10T07:22:07.416Z,100775.52
2023-05-10T07:24:58.232Z,100773.06
2023-05-10T07:27:49.780Z,100776.52
2023-05-10T07:30:40.044Z,100775.41
2023-05-10T07:33:44.148Z,100779.59
2023-05-10T07:36:34.873Z,100781.44
2023-05-10T07:39:27.537Z,100775.08
2023-05-10T07:42:18.968Z,100769.81
2023-05-10T07:45:15.678Z,100771.00
2023-05-10T07:48:09.928Z,100770.27
2023-05-10T07:51:00.656Z,100772.66
2023-05-10T07:53:51.982Z,100774.42
2023-05-10T07:56:46.788Z,100772.94
2023-05-10T07:59:37.622Z,100770.34
2023-05-10T08:02:29.027Z,100777.13
2023-05-10T08:05:20.023Z,100781.63
2023-05-10T08:08:10.676Z,100777.27
2023-05-10T08:11:03.548Z,100784.61
2023-05-10T08:13:55.220Z,100776.29
2023-05-10T08:16:46.224Z,100774.48
2023-05-10T08:19:36.779Z,100774.39
2023-05-10T08:22:27.758Z,100776.45
2023-05-10T08:25:18.749Z,100783.59
2023-05-10T08:28:10.709Z,100780.02
2023-05-10T08:31:02.707Z,100778.98
2023-05-10T08:33:53.831Z,100777.53
2023-05-10T08:36:44.056Z,100773.55
2023-05-10T08:39:38.425Z,100775.96
2023-05-10T08:42:31.169Z,100779.66
2023-05-10T08:45:25.468Z,100782.60
2023-05-10T08:48:16.694Z,100785.66
2023-05-10T08:51:08.001Z,100785.11
2023-05-10T08:53:58.939Z,100784.46
2023-05-10T08:56:49.913Z,100789.18
2023-05-10T08:59:40.935Z,100793.48
2023-05-10T09:02:32.083Z,100795.89
2023-05-10T09:05:22.806Z,100794.27
2023-05-10T09:08:14.271Z,100785.45
2023-05-10T09:11:05.092Z,100782.89
2023-05-10T09:13:55.750Z,100781.70
2023-05-10T09:16:46.606Z,100778.23
2023-05-10T09:19:37.189Z,100767.37
2023-05-10T09:22:27.654Z,100773.31
2023-05-10T09:25:19.137Z,100764.83
2023-05-10T09:28:10.618Z,100763.52
2023-05-10T09:31:01.223Z,100780.15
2023-05-10T09:33:52.535Z,100782.48
2023-05-10T09:36:53.605Z,100779.93
2023-05-10T09:39:44.070Z,100780.98
2023-05-10T09:42:34.689Z,100781.97
2023-05-10T09:45:26.114Z,100789.39
2023-05-10T09:48:16.752Z,100790.95
2023-05-10T09:51:07.356Z,100792.67
2023-05-10T09:56:53.919Z,100785.90
2023-05-10T09:59:46.452Z,100789.98
2023-05-10T10:02:39.564Z,100796.83
2023-05-10T10:05:33.352Z,100802.05
2023-05-10T10:08:24.266Z,100808.55
2023-05-10T10:11:14.903Z,100816.08
2023-05-10T10:14:05.802Z,100822.87
2023-05-10T10:17:07.240Z,100805.33
2023-05-10T10:19:59.471Z,100804.27
2023-05-10T10:22:50.392Z,100806.52
2023-05-10T10:25:41.565Z,100800.79
2023-05-10T10:28:38.391Z,100789.91
2023-05-10T10:31:34.969Z,100788.66
2023-05-10T10:34:28.238Z,100782.50
2023-05-10T10:37:18.702Z,100790.55
2023-05-10T10:40:22.963Z,100785.86
2023-05-10T10:43:26.758Z,100779.62
2023-05-10T10:46:18.688Z,100783.67
2023-05-10T10:49:12.944Z,100778.62
2023-05-10T10:52:20.623Z,100773.72
2023-05-10T10:55:12.387Z,100780.74
2023-05-10T10:58:03.961Z,100784.92
2023-05-10T11:01:11.238Z,100788.55
2023-05-10T11:04:19.241Z,100789.49
2023-05-10T11:07:20.071Z,100797.69
2023-05-10T11:10:11.508Z,100797.86
2023-05-10T11:13:03.554Z,100801.25
2023-05-10T11:15:54.234Z,100803.76
2023-05-10T11:18:54.233Z,100802.63
2023-05-10T11:21:49.224Z,100798.18
2023-05-10T11:24:39.738Z,100794.46
2023-05-10T11:27:30.299Z,100794.59
2023-05-10T11:30:21.317Z,100791.77
2023-05-10T11:33:12.281Z,100787.69
2023-05-10T11:36:03.033Z,100790.27
2023-05-10T11:38:53.999Z,100790.80
2023-05-10T11:41:44.693Z,100794.30
2023-05-10T11:44:35.381Z,100786.33
2023-05-10T11:47:26.029Z,100789.63
2023-05-10T11:50:16.946Z,100793.17
2023-05-10T11:53:07.784Z,100792.44
2023-05-10T11:56:04.720Z,100797.94
2023-05-10T11:58:56.860Z,100805.02
2023-05-10T12:01:47.811Z,100805.84
2023-05-10T12:04:38.598Z,100807.66
2023-05-10T12:07:32.130Z,100806.69
2023-05-10T12:10:27.791Z,100808.02
2023-05-10T12:13:17.956Z,100799.70
2023-05-10T12:16:17.740Z,100797.32
2023-05-10T12:19:08.967Z,100786.70
2023-05-10T12:21:59.772Z,100786.80
2023-05-10T12:24:50.316Z,100792.35
2023-05-10T12:27:41.200Z,100797.71
2023-05-10T12:30:32.526Z,100803.09
2023-05-10T12:33:23.005Z,100807.91
2023-05-10T12:36:14.091Z,100812.05
2023-05-10T12:39:06.210Z,100807.92
2023-05-10T12:41:56.759Z,100809.27
2023-05-10T12:44:47.402Z,100814.03
2023-05-10T12:47:39.245Z,100813.98
2023-05-10T12:50:30.849Z,100814.77
2023-05-10T12:53:21.578Z,100817.85
2023-05-10T12:56:12.289Z,100821.21
2023-05-10T12:59:05.360Z,100823.41
2023-05-10T13:01:56.085Z,100823.18
2023-05-10T13:04:49.539Z,100821.50
2023-05-10T13:07:44.998Z,100818.55
2023-05-10T13:10:35.575Z,100822.63
2023-05-10T13:13:26.071Z,100815.73
2023-05-10T13:16:16.833Z,100809.86
2023-05-10T13:19:07.408Z,100810.19
2023-05-10T13:21:57.997Z,100809.54
2023-05-10T13:24:48.782Z,100806.52
2023-05-10T13:27:39.605Z,100801.99
2023-05-10T13:30:30.355Z,100803.83
2023-05-10T13:33:21.121Z,100796.70
2023-05-10T13:36:11.881Z,100799.52
2023-05-10T13:39:04.572Z,100789.38
2023-05-10T13:41:55.771Z,100785.88
2023-05-10T13:44:46.309Z,100785.79
2023-05-10T13:47:37.509Z,100784.61
2023-05-10T13:50:28.096Z,100785.14
2023-05-10T13:53:18.725Z,100783.08
2023-05-10T13:56:09.588Z,100785.14
2023-05-10T13:59:00.546Z,100783.81
2023-05-10T14:01:51.074Z,100780.48
2023-05-10T14:04:41.948Z,100786.65
2023-05-10T14:07:32.573Z,100797.19
2023-05-10T14:10:23.177Z,100801.08
2023-05-10T14:13:13.942Z,100797.40
2023-05-10T14:16:04.557Z,100792.11
2023-05-10T14:18:56.910Z,100788.64
2023-05-10T14:21:47.555Z,100785.39
2023-05-10T14:24:38.175Z,100773.65
2023-05-10T14:27:28.764Z,100772.41
2023-05-10T14:30:19.278Z,100770.97
2023-05-10T14:33:10.025Z,100766.36
2023-05-10T14:36:01.125Z,100762.33
2023-05-10T14:38:51.661Z,100769.04
2023-05-10T14:41:44.077Z,100765.52
2023-05-10T14:44:34.454Z,100764.87
2023-05-10T14:47:25.030Z,100764.20
2023-05-10T14:50:28.202Z,100770.73
2023-05-10T14:53:25.148Z,100766.08
2023-05-10T14:56:15.745Z,100764.61
2023-05-10T14:59:06.287Z,100762.89
2023-05-10T15:01:57.464Z,100764.55
2023-05-10T15:04:48.521Z,100763.13
2023-05-10T15:07:39.644Z,100770.35
2023-05-10T15:10:30.882Z,100775.40
2023-05-10T15:13:22.292Z,100783.67
2023-05-10T15:16:12.971Z,100784.98
2023-05-10T15:19:03.953Z,100787.53
2023-05-10T15:21:54.485Z,100791.09
2023-05-10T15:24:45.089Z,100788.45
2023-05-10T15:27:35.677Z,100786.72
2023-05-10T15:30:26.476Z,100798.67
2023-05-10T15:33:17.794Z,100803.91
2023-05-10T15:36:08.822Z,100802.83
2023-05-10T15:38:59.493Z,100804.41
2023-05-10T15:41:50.111Z,100802.52
2023-05-10T15:44:40.817Z,100799.33
2023-05-10T15:47:32.365Z,100801.09
2023-05-10T15:50:22.850Z,100796.59
2023-05-10T15:53:13.545Z,100787.59
2023-05-10T15:56:04.227Z,100787.40
2023-05-10T15:58:54.875Z,100781.36
2023-05-10T16:01:45.824Z,100780.13
2023-05-10T16:04:36.374Z,100783.27
2023-05-10T16:07:27.105Z,100783.23
2023-05-10T16:10:17.872Z,100791.10
2023-05-10T16:13:08.767Z,100796.77
2023-05-10T16:16:00.342Z,100791.67
2023-05-10T16:18:51.173Z,100791.83
2023-05-10T16:21:41.789Z,100800.46
2023-05-10T16:24:32.990Z,100803.48
2023-05-10T16:27:28.822Z,100803.65
2023-05-10T16:33:16.181Z,100815.40
2023-05-10T16:36:06.899Z,100818.02
2023-05-10T16:38:57.505Z,100818.40
2023-05-10T16:41:48.245Z,100818.92
2023-05-10T16:44:39.424Z,100821.05
2023-05-10T16:47:39.708Z,100822.65
2023-05-10T16:50:30.464Z,100823.45
2023-05-10T16:53:24.601Z,100823.48
2023-05-10T16:56:25.183Z,100824.98
2023-05-10T16:59:16.610Z,100822.16
2023-05-10T17:02:14.920Z,100825.39
2023-05-10T17:05:16.112Z,100831.98
2023-05-10T17:08:06.898Z,100828.11
2023-05-10T17:10:57.613Z,100824.59
2023-05-10T17:13:48.243Z,100828.05
2023-05-10T17:16:39.092Z,100831.73
2023-05-10T17:19:29.689Z,100828.53
2023-05-10T17:22:20.277Z,100829.66
2023-05-10T17:25:11.510Z,100835.61
2023-05-10T17:28:02.089Z,100836.34
2023-05-10T17:30:59.656Z,100839.37
2023-05-10T17:33:50.367Z,100843.38
2023-05-10T17:36:41.210Z,100844.66
2023-05-10T17:39:31.798Z,100849.75
2023-05-10T17:42:22.372Z,100859.83
2023-05-10T17:45:13.448Z,100867.98
2023-05-10T17:48:04.434Z,100861.55
2023-05-10T17:50:55.105Z,100860.33
2023-05-10T17:53:46.023Z,100862.50
2023-05-10T17:56:39.286Z,100867.10
2023-05-10T17:59:29.769Z,100869.02
2023-05-10T18:02:20.271Z,100870.50
2023-05-10T18:05:11.848Z,100874.53
2023-05-10T18:08:02.684Z,100875.49
2023-05-10T18:10:53.419Z,100873.29
2023-05-10T18:13:44.189Z,100872.27
2023-05-10T18:16:37.941Z,100873.61
2023-05-10T18:19:28.615Z,100877.16
2023-05-10T18:22:19.270Z,100878.27
2023-05-10T18:25:10.621Z,100878.89
2023-05-10T18:28:04.274Z,100879.05
2023-05-10T18:30:55.027Z,100887.34
2023-05-10T18:33:46.283Z,100898.67
2023-05-10T18:36:58.207Z,100906.89
2023-05-10T18:39:51.890Z,100901.94
2023-05-10T18:42:55.393Z,100898.96
2023-05-10T18:45:46.447Z,100906.88
2023-05-10T18:48:37.037Z,100912.93
2023-05-10T18:51:29.831Z,100919.05
2023-05-10T18:54:31.070Z,100921.21
2023-05-10T18:57:22.342Z,100920.36
2023-05-10T19:00:24.016Z,100920.45
2023-05-10T19:03:14.910Z,100926.98
2023-05-10T19:06:06.260Z,100927.92
2023-05-10T19:08:59.988Z,100929.44
2023-05-10T19:11:50.813Z,100928.13
2023-05-10T19:14:41.454Z,100930.22
2023-05-10T19:17:44.923Z,100934.91
2023-05-10T19:20:46.970Z,100934.02
2023-05-10T19:23:39.545Z,100936.29
2023-05-10T19:26:34.823Z,100939.86
2023-05-10T19:29:25.420Z,100939.66
2023-05-10T19:32:18.201Z,100936.13
2023-05-10T19:35:19.004Z,100942.58
2023-05-10T19:38:30.202Z,100948.13
2023-05-10T19:41:28.726Z,100946.18
2023-05-10T19:44:33.634Z,100947.23
2023-05-10T19:47:30.025Z,100953.77
2023-05-10T19:50:23.385Z,100966.44
2023-05-10T19:53:34.165Z,100973.52
2023-05-10T19:56:28.864Z,100975.92
2023-05-10T19:59:23.954Z,100975.78
2023-05-10T20:02:34.833Z,100972.66
2023-05-10T20:05:38.254Z,100975.28
2023-05-10T20:08:43.108Z,100978.31
2023-05-10T20:11:42.663Z,100981.41
2023-05-10T20:14:53.795Z,100981.22
2023-05-10T20:18:04.884Z,100983.84
2023-05-10T20:21:16.079Z,100981.41
2023-05-10T20:24:26.852Z,100979.76
2023-05-10T20:27:37.840Z,100983.10
2023-05-10T20:30:49.780Z,100983.04
2023-05-10T20:33:41.354Z,100986.58
2023-05-10T20:36:37.478Z,100984.39
2023-05-10T20:39:50.343Z,100978.70
2023-05-10T20:43:01.825Z,100981.50
2023-05-10T20:46:05.644Z,100979.48
2023-05-10T20:49:06.092Z,100982.08
2023-05-10T20:52:17.270Z,100980.28
2023-05-10T20:55:28.409Z,100977.39
2023-05-10T20:58:30.227Z,100977.84
2023-05-10T21:01:41.627Z,100979.42
2023-05-10T21:04:43.454Z,100980.23
2023-05-10T21:07:55.231Z,100984.42
2023-05-10T21:11:06.381Z,100989.53
2023-05-10T21:14:17.476Z,100998.55
2023-05-10T21:17:28.537Z,100999.16
2023-05-10T21:20:39.786Z,101001.65
2023-05-10T21:23:50.667Z,101004.63
2023-05-10T21:26:53.030Z,101007.31
2023-05-10T21:29:53.808Z,101009.45
2023-05-10T21:33:05.407Z,101009.79
2023-05-10T21:36:15.357Z,101011.40
2023-05-10T21:39:26.076Z,101014.63
2023-05-10T21:42:36.979Z,101015.47
2023-05-10T21:45:48.329Z,101010.00
2023-05-10T21:48:59.431Z,101009.11
2023-05-10T21:52:03.946Z,101010.48
2023-05-10T21:55:15.644Z,101016.57
2023-05-10T21:58:26.677Z,101021.48
2023-05-10T22:01:37.623Z,101021.91
2023-05-10T22:04:49.856Z,101021.57
2023-05-10T22:08:00.682Z,101022.46
2023-05-10T22:11:04.703Z,101025.94
2023-05-10T22:14:15.822Z,101026.69
2023-05-10T22:17:26.659Z,101020.43
2023-05-10T22:20:38.061Z,101023.41
2023-05-10T22:23:31.033Z,101024.02
2023-05-10T22:26:31.314Z,101027.45
2023-05-10T22:29:42.232Z,101022.88
2023-05-10T22:32:54.027Z,101023.62
2023-05-10T22:35:45.305Z,101022.95
2023-05-10T22:38:48.757Z,101021.55
2023-05-10T22:41:53.134Z,101022.68
2023-05-10T22:44:56.890Z,101022.23
2023-05-10T22:48:01.124Z,101020.42
2023-05-10T22:51:12.477Z,101022.19
2023-05-10T22:54:27.113Z,101026.88
2023-05-10T22:57:38.861Z,101027.96
2023-05-10T23:00:50.443Z,101031.33
2023-05-10T23:04:00.805Z,101031.39
2023-05-10T23:07:12.199Z,101032.59
2023-05-10T23:10:22.293Z,101029.52
2023-05-10T23:13:16.173Z,101023.77
2023-05-10T23:16:26.974Z,101027.10
2023-05-10T23:19:28.779Z,101026.23
2023-05-10T23:22:40.159Z,101032.64
2023-05-10T23:25:50.868Z,101029.86
2023-05-10T23:29:03.336Z,101024.65
2023-05-10T23:32:14.423Z,101025.76
2023-05-10T23:35:20.761Z,101032.75
2023-05-10T23:38:31.518Z,101036.02
2023-05-10T23:41:42.834Z,101034.37
2023-05-10T23:44:53.854Z,101039.75
2023-05-10T23:47:54.244Z,101038.41
2023-05-10T23:51:05.835Z,101040.69
2023-05-10T23:54:17.025Z,101044.02
2023-05-10T23:57:28.624Z,101043.84
